createdAt,value
2022-08-28T00:02:55.274Z,100914.31
2022-08-28T00:06:57.316Z,100919.78
2022-08-28T00:10:59.757Z,100915.97
2022-08-28T00:15:02.022Z,100922.38
2022-08-28T00:19:04.429Z,100916.09
2022-08-28T00:23:07.147Z,100922.91
2022-08-28T00:27:26.993Z,100924.34
2022-08-28T00:31:29.592Z,100926.13
2022-08-28T00:35:31.202Z,100926.59
2022-08-28T00:39:33.039Z,100931.81
2022-08-28T00:43:43.111Z,100925.63
2022-08-28T00:47:44.999Z,100921.41
2022-08-28T00:52:08.077Z,100924.16
2022-08-28T00:56:13.291Z,100910.25
2022-08-28T01:00:24.966Z,100917.91
2022-08-28T01:04:32.227Z,100921.06
2022-08-28T01:08:36.881Z,100917.84
2022-08-28T01:12:39.095Z,100929.31
2022-08-28T01:16:42.911Z,100919.00
2022-08-28T01:20:56.710Z,100916.06
2022-08-28T01:25:02.036Z,100922.00
2022-08-28T01:29:04.577Z,100923.28
2022-08-28T01:33:06.280Z,100926.03
2022-08-28T01:37:07.777Z,100925.28
2022-08-28T01:41:11.088Z,100920.94
2022-08-28T01:45:15.164Z,100924.34
2022-08-28T01:49:17.202Z,100921.16
2022-08-28T01:53:24.876Z,100918.75
2022-08-28T01:57:26.744Z,100923.56
2022-08-28T02:01:28.254Z,100919.84
2022-08-28T02:05:32.968Z,100920.09
2022-08-28T02:09:35.599Z,100924.75
2022-08-28T02:13:38.300Z,100923.63
2022-08-28T02:17:39.779Z,100932.47
2022-08-28T02:21:41.322Z,100933.91
2022-08-28T02:25:42.795Z,100924.81
2022-08-28T02:29:44.317Z,100930.59
2022-08-28T02:33:45.941Z,100933.91
2022-08-28T02:37:48.084Z,100937.56
2022-08-28T02:41:50.289Z,100940.06
2022-08-28T02:45:51.838Z,100935.63
2022-08-28T02:49:53.396Z,100936.78
2022-08-28T02:53:54.932Z,100933.66
2022-08-28T02:57:56.427Z,100933.31
2022-08-28T03:01:57.857Z,100938.75
2022-08-28T03:06:00.757Z,100932.50
2022-08-28T03:10:02.365Z,100946.38
2022-08-28T03:14:04.809Z,100938.06
2022-08-28T03:18:08.170Z,100932.78
2022-08-28T03:22:13.025Z,100934.06
2022-08-28T03:26:17.963Z,100939.22
2022-08-28T03:30:21.184Z,100939.25
2022-08-28T03:34:22.827Z,100938.75
2022-08-28T03:38:25.381Z,100942.09
2022-08-28T03:42:27.821Z,100943.78
2022-08-28T03:46:33.969Z,100950.66
2022-08-28T03:50:35.702Z,100941.00
2022-08-28T03:54:37.340Z,100944.63
2022-08-28T03:58:42.229Z,100939.81
2022-08-28T04:02:44.201Z,100947.03
2022-08-28T04:06:45.694Z,100955.44
2022-08-28T04:10:48.415Z,100965.03
2022-08-28T04:14:49.927Z,100970.66
2022-08-28T04:18:51.445Z,100965.88
2022-08-28T04:22:55.208Z,100971.88
2022-08-28T04:26:56.975Z,100971.50
2022-08-28T04:30:58.555Z,100979.06
2022-08-28T04:35:00.146Z,100986.25
2022-08-28T04:39:02.969Z,100993.88
2022-08-28T04:43:04.422Z,100993.88
2022-08-28T04:47:06.319Z,100993.06
2022-08-28T04:51:10.591Z,100992.25
2022-08-28T04:55:12.204Z,100994.66
2022-08-28T04:59:13.980Z,100996.28
2022-08-28T05:03:17.574Z,100996.28
2022-08-28T05:07:19.014Z,101001.06
2022-08-28T05:11:34.287Z,101000.28
2022-08-28T05:15:44.576Z,100997.06
2022-08-28T05:19:48.103Z,100999.47
2022-08-28T05:23:51.277Z,101007.88
2022-08-28T05:27:52.756Z,101013.84
2022-08-28T05:31:54.434Z,101021.06
2022-08-28T05:35:55.904Z,101022.28
2022-08-28T05:39:57.458Z,101017.91
2022-08-28T05:44:01.508Z,101023.91
2022-08-28T05:48:03.242Z,101019.03
2022-08-28T05:52:04.751Z,101021.06
2022-08-28T05:56:06.461Z,101025.84
2022-08-28T06:00:13.628Z,101023.78
2022-08-28T06:04:19.033Z,101031.03
2022-08-28T06:08:21.780Z,101038.19
2022-08-28T06:12:23.612Z,101033.00
2022-08-28T06:16:25.164Z,101041.81
2022-08-28T06:20:26.644Z,101038.69
2022-08-28T06:24:29.432Z,101041.88
2022-08-28T06:28:32.908Z,101040.25
2022-08-28T06:32:34.464Z,101048.16
2022-08-28T06:36:39.459Z,101048.31
2022-08-28T06:40:47.138Z,101049.88
2022-08-28T06:44:48.772Z,101051.13
2022-08-28T06:48:50.979Z,101057.94
2022-08-28T06:52:52.450Z,101062.34
2022-08-28T06:56:54.104Z,101067.53
2022-08-28T07:01:10.595Z,101076.75
2022-08-28T07:05:14.576Z,101081.06
2022-08-28T07:09:16.200Z,101083.13
2022-08-28T07:13:17.826Z,101079.59
2022-08-28T07:17:19.448Z,101084.41
2022-08-28T07:21:21.090Z,101101.53
2022-08-28T07:25:22.531Z,101101.25
2022-08-28T07:29:24.010Z,101099.63
2022-08-28T07:33:30.375Z,101094.81
2022-08-28T07:37:31.875Z,101106.81
2022-08-28T07:41:40.223Z,101105.63
2022-08-28T07:45:43.009Z,101108.44
2022-08-28T07:49:47.062Z,101111.66
2022-08-28T07:53:48.533Z,101117.28
2022-08-28T07:57:50.089Z,101112.44
2022-08-28T08:01:53.650Z,101119.28
2022-08-28T08:06:02.179Z,101116.44
2022-08-28T08:10:03.955Z,101119.28
2022-08-28T08:14:06.156Z,101118.06
2022-08-28T08:18:07.690Z,101128.47
2022-08-28T08:22:09.300Z,101127.63
2022-08-28T08:26:14.534Z,101124.47
2022-08-28T08:30:16.141Z,101127.47
2022-08-28T08:34:17.623Z,101135.44
2022-08-28T08:38:19.171Z,101139.00
2022-08-28T08:42:29.699Z,101147.25
2022-08-28T08:46:35.612Z,101150.91
2022-08-28T08:50:37.516Z,101148.47
2022-08-28T08:54:44.178Z,101147.72
2022-08-28T08:58:51.166Z,101154.78
2022-08-28T09:03:37.118Z,101158.13
2022-08-28T09:07:53.284Z,101150.53
2022-08-28T09:11:57.192Z,101160.53
2022-08-28T09:16:01.716Z,101158.91
2022-08-28T09:20:05.488Z,101167.75
2022-08-28T09:24:21.301Z,101164.13
2022-08-28T09:28:27.511Z,101161.31
2022-08-28T09:32:35.910Z,101161.84
2022-08-28T09:36:38.618Z,101168.13
2022-08-28T09:40:58.485Z,101178.31
2022-08-28T09:45:21.388Z,101176.41
2022-08-28T09:49:30.219Z,101172.00
2022-08-28T09:53:38.462Z,101177.34
2022-08-28T09:57:45.635Z,101188.97
2022-08-28T10:01:51.534Z,101190.69
2022-08-28T10:06:02.097Z,101195.38
2022-08-28T10:10:48.002Z,101200.66
2022-08-28T10:15:03.260Z,101202.81
2022-08-28T10:19:28.182Z,101204.22
2022-08-28T10:23:40.638Z,101198.63
2022-08-28T10:27:45.095Z,101207.03
2022-08-28T10:32:15.429Z,101203.00
2022-08-28T10:36:34.267Z,101206.25
2022-08-28T10:40:41.801Z,101205.41
2022-08-28T10:44:55.885Z,101217.44
2022-08-28T10:49:06.235Z,101225.50
2022-08-28T10:53:13.872Z,101227.88
2022-08-28T10:57:39.557Z,101221.88
2022-08-28T11:01:43.303Z,101231.06
2022-08-28T11:06:01.721Z,101229.84
2022-08-28T11:10:23.987Z,101236.31
2022-08-28T11:14:30.026Z,101233.50
2022-08-28T11:18:44.833Z,101235.50
2022-08-28T11:22:48.897Z,101253.13
2022-08-28T11:27:23.306Z,101243.53
2022-08-28T11:31:29.011Z,101255.13
2022-08-28T11:35:30.637Z,101254.38
2022-08-28T11:39:32.297Z,101260.34
2022-08-28T11:43:35.401Z,101259.16
2022-08-28T11:47:39.137Z,101255.06
2022-08-28T11:51:57.593Z,101262.28
2022-08-28T11:56:31.157Z,101261.16
2022-08-28T12:00:48.315Z,101244.31
2022-08-28T12:04:50.455Z,101242.31
2022-08-28T12:08:57.990Z,101247.13
2022-08-28T12:13:04.927Z,101237.13
2022-08-28T12:17:21.619Z,101251.94
2022-08-28T12:21:27.128Z,101253.53
2022-08-28T12:25:38.176Z,101241.91
2022-08-28T12:29:48.390Z,101253.94
2022-08-28T12:34:04.370Z,101250.78
2022-08-28T12:38:09.346Z,101242.22
2022-08-28T12:42:18.726Z,101240.19
2022-08-28T12:46:28.786Z,101244.31
2022-08-28T12:50:32.487Z,101243.03
2022-08-28T12:54:35.272Z,101244.66
2022-08-28T12:58:39.641Z,101243.31
2022-08-28T13:02:41.422Z,101241.25
2022-08-28T13:06:43.211Z,101236.22
2022-08-28T13:10:49.399Z,101244.84
2022-08-28T13:14:52.342Z,101238.19
2022-08-28T13:19:06.173Z,101241.59
2022-08-28T13:23:07.747Z,101226.06
2022-08-28T13:27:23.527Z,101226.78
2022-08-28T13:31:33.357Z,101226.50
2022-08-28T13:35:40.292Z,101218.00
2022-08-28T13:39:41.759Z,101223.72
2022-08-28T13:43:46.017Z,101217.13
2022-08-28T13:47:47.535Z,101220.63
2022-08-28T13:51:50.302Z,101217.53
2022-08-28T13:55:52.789Z,101217.56
2022-08-28T13:59:55.788Z,101208.41
2022-08-28T14:03:57.470Z,101215.31
2022-08-28T14:07:59.353Z,101217.81
2022-08-28T14:12:01.323Z,101218.16
2022-08-28T14:16:07.898Z,101222.25
2022-08-28T14:20:09.910Z,101208.84
2022-08-28T14:24:12.267Z,101212.16
2022-08-28T14:28:14.348Z,101210.56
2022-08-28T14:32:16.132Z,101197.78
2022-08-28T14:36:23.646Z,101196.81
2022-08-28T14:40:25.303Z,101201.41
2022-08-28T14:44:26.816Z,101193.50
2022-08-28T14:48:28.282Z,101198.72
2022-08-28T14:52:29.776Z,101203.31
2022-08-28T14:56:32.495Z,101193.88
2022-08-28T15:00:39.352Z,101183.94
2022-08-28T15:04:40.903Z,101183.56
2022-08-28T15:08:42.401Z,101200.09
2022-08-28T15:12:43.823Z,101184.28
2022-08-28T15:16:47.829Z,101175.91
2022-08-28T15:20:49.353Z,101180.28
2022-08-28T15:24:52.602Z,101180.06
2022-08-28T15:29:02.336Z,101166.84
2022-08-28T15:33:04.211Z,101171.94
2022-08-28T15:37:07.856Z,101178.75
2022-08-28T15:41:35.482Z,101185.72
2022-08-28T15:45:39.178Z,101177.53
2022-08-28T15:49:46.852Z,101168.22
2022-08-28T15:53:51.674Z,101169.06
2022-08-28T15:57:55.039Z,101173.38
2022-08-28T16:01:56.580Z,101172.25
2022-08-28T16:05:58.969Z,101165.34
2022-08-28T16:10:02.940Z,101167.53
2022-08-28T16:14:04.687Z,101166.13
2022-08-28T16:18:08.974Z,101170.03
2022-08-28T16:22:11.512Z,101162.75
2022-08-28T16:26:15.727Z,101166.75
2022-08-28T16:30:17.583Z,101163.09
2022-08-28T16:34:20.290Z,101167.34
2022-08-28T16:38:22.172Z,101178.53
2022-08-28T16:42:24.438Z,101172.56
2022-08-28T16:46:26.654Z,101165.16
2022-08-28T16:50:31.668Z,101178.00
2022-08-28T16:54:33.161Z,101176.03
2022-08-28T16:58:34.624Z,101169.31
2022-08-28T17:02:36.192Z,101169.25
2022-08-28T17:06:37.820Z,101171.88
2022-08-28T17:10:39.424Z,101172.06
2022-08-28T17:14:40.878Z,101173.03
2022-08-28T17:18:48.171Z,101172.25
2022-08-28T17:22:53.796Z,101175.16
2022-08-28T17:26:55.256Z,101185.75
2022-08-28T17:30:57.276Z,101191.38
2022-08-28T17:34:58.869Z,101183.44
2022-08-28T17:39:02.012Z,101197.38
2022-08-28T17:43:03.632Z,101197.69
2022-08-28T17:47:05.835Z,101191.91
2022-08-28T17:51:07.623Z,101193.03
2022-08-28T17:55:09.151Z,101199.69
2022-08-28T17:59:12.148Z,101196.81
2022-08-28T18:03:15.276Z,101208.44
2022-08-28T18:07:16.774Z,101206.50
2022-08-28T18:11:19.145Z,101208.13
2022-08-28T18:15:20.838Z,101220.19
2022-08-28T18:19:23.915Z,101223.88
2022-08-28T18:23:25.520Z,101222.16
2022-08-28T18:27:28.619Z,101234.06
2022-08-28T18:31:30.264Z,101224.72
2022-08-28T18:35:32.382Z,101235.81
2022-08-28T18:39:35.888Z,101235.69
2022-08-28T18:43:37.598Z,101234.06
2022-08-28T18:47:39.898Z,101245.78
2022-08-28T18:51:43.517Z,101243.72
2022-08-28T18:55:45.793Z,101245.78
2022-08-28T18:59:48.127Z,101252.19
2022-08-28T19:03:50.334Z,101251.34
2022-08-28T19:07:51.945Z,101264.25
2022-08-28T19:11:54.174Z,101258.25
2022-08-28T19:15:55.638Z,101261.84
2022-08-28T19:19:57.382Z,101269.03
2022-08-28T19:23:58.851Z,101264.72
2022-08-28T19:28:01.820Z,101278.38
2022-08-28T19:32:04.532Z,101274.38
2022-08-28T19:36:06.582Z,101277.59
2022-08-28T19:40:09.765Z,101290.84
2022-08-28T19:44:11.384Z,101292.03
2022-08-28T19:48:13.067Z,101292.09
2022-08-28T19:52:14.679Z,101292.84
2022-08-28T19:56:16.166Z,101297.31
2022-08-28T20:00:20.998Z,101298.50
2022-08-28T20:04:22.651Z,101305.28
2022-08-28T20:08:26.924Z,101301.63
2022-08-28T20:12:28.523Z,101315.28
2022-08-28T20:16:30.540Z,101310.84
2022-08-28T20:20:32.017Z,101317.66
2022-08-28T20:24:33.583Z,101314.41
2022-08-28T20:28:36.185Z,101320.47
2022-08-28T20:32:40.808Z,101328.09
2022-08-28T20:36:43.139Z,101328.00
2022-08-28T20:40:44.657Z,101334.06
2022-08-28T20:44:46.141Z,101328.41
2022-08-28T20:48:47.627Z,101333.59
2022-08-28T20:52:49.104Z,101335.22
2022-08-28T20:56:52.101Z,101329.59
2022-08-28T21:00:59.391Z,101333.53
2022-08-28T21:05:01.607Z,101335.78
2022-08-28T21:09:03.208Z,101331.00
2022-08-28T21:13:05.841Z,101336.16
2022-08-28T21:17:10.264Z,101340.88
2022-08-28T21:21:12.545Z,101342.13
2022-08-28T21:25:18.081Z,101334.09
2022-08-28T21:29:22.770Z,101346.59
2022-08-28T21:33:24.691Z,101345.22
2022-08-28T21:37:26.642Z,101339.66
2022-08-28T21:41:28.220Z,101338.88
2022-08-28T21:45:29.668Z,101338.31
2022-08-28T21:49:31.228Z,101336.44
2022-08-28T21:53:32.970Z,101339.69
2022-08-28T21:57:35.098Z,101347.25
2022-08-28T22:01:37.104Z,101350.94
2022-08-28T22:05:41.406Z,101350.69
2022-08-28T22:09:42.977Z,101352.31
2022-08-28T22:13:44.643Z,101360.34
2022-08-28T22:17:46.080Z,101357.69
2022-08-28T22:22:06.013Z,101356.75
2022-08-28T22:26:12.024Z,101356.13
2022-08-28T22:30:13.733Z,101353.25
2022-08-28T22:34:15.218Z,101360.66
2022-08-28T22:38:16.791Z,101360.94
2022-08-28T22:42:18.341Z,101359.19
2022-08-28T22:46:21.677Z,101361.78
2022-08-28T22:50:23.268Z,101369.47
2022-08-28T22:54:24.831Z,101370.78
2022-08-28T22:58:31.404Z,101371.41
2022-08-28T23:02:33.037Z,101374.28
2022-08-28T23:06:34.742Z,101377.19
2022-08-28T23:10:58.087Z,101374.28
2022-08-28T23:14:57.875Z,101370.97
2022-08-28T23:19:08.993Z,101363.31
2022-08-28T23:23:11.375Z,101363.75
2022-08-28T23:27:34.773Z,101363.81
2022-08-28T23:31:34.787Z,101364.25
2022-08-28T23:35:36.771Z,101364.69
2022-08-28T23:39:38.262Z,101362.72
2022-08-28T23:43:39.723Z,101372.66
2022-08-28T23:47:44.978Z,101368.06
2022-08-28T23:51:46.453Z,101363.63
2022-08-28T23:55:49.037Z,101362.06
2022-08-28T23:59:50.605Z,101367.09
